sensor_id;sensor_type;location;lat;lon;timestamp;P1;durP1;ratioP1;P2;durP2;ratioP2
22415;SDS011;12204;50.600;4.608;2023-04-01T00:01:58;5.22;;;1.75;;
22415;SDS011;12204;50.600;4.608;2023-04-01T00:07:03;4.15;;;1.48;;
22415;SDS011;12204;50.600;4.608;2023-04-01T00:12:07;4.40;;;1.50;;
22415;SDS011;12204;50.600;4.608;2023-04-01T00:17:12;5.25;;;1.52;;
22415;SDS011;12204;50.600;4.608;2023-04-01T00:22:19;4.47;;;1.45;;
22415;SDS011;12204;50.600;4.608;2023-04-01T00:27:23;4.65;;;1.70;;
22415;SDS011;12204;50.600;4.608;2023-04-01T00:32:27;4.93;;;1.50;;
22415;SDS011;12204;50.600;4.608;2023-04-01T00:37:33;5.25;;;1.60;;
22415;SDS011;12204;50.600;4.608;2023-04-01T00:42:38;3.88;;;1.40;;
22415;SDS011;12204;50.600;4.608;2023-04-01T00:47:42;5.38;;;1.50;;
22415;SDS011;12204;50.600;4.608;2023-04-01T00:52:47;5.57;;;1.50;;
22415;SDS011;12204;50.600;4.608;2023-04-01T00:57:51;4.38;;;1.45;;
22415;SDS011;12204;50.600;4.608;2023-04-01T01:02:57;4.68;;;1.50;;
22415;SDS011;12204;50.600;4.608;2023-04-01T01:08:03;4.60;;;1.35;;
22415;SDS011;12204;50.600;4.608;2023-04-01T01:13:19;4.90;;;1.33;;
22415;SDS011;12204;50.600;4.608;2023-04-01T01:18:34;4.43;;;1.38;;
22415;SDS011;12204;50.600;4.608;2023-04-01T01:23:52;4.38;;;1.30;;
22415;SDS011;12204;50.600;4.608;2023-04-01T01:35:14;4.28;;;1.40;;
22415;SDS011;12204;50.600;4.608;2023-04-01T01:40:25;3.75;;;1.33;;
22415;SDS011;12204;50.600;4.608;2023-04-01T01:45:30;3.92;;;1.48;;
22415;SDS011;12204;50.600;4.608;2023-04-01T01:50:40;4.25;;;1.20;;
22415;SDS011;12204;50.600;4.608;2023-04-01T01:55:47;4.15;;;1.30;;
22415;SDS011;12204;50.600;4.608;2023-04-01T02:00:52;4.03;;;1.30;;
22415;SDS011;12204;50.600;4.608;2023-04-01T02:06:04;4.28;;;1.52;;
22415;SDS011;12204;50.600;4.608;2023-04-01T02:11:13;2.30;;;0.98;;
22415;SDS011;12204;50.600;4.608;2023-04-01T02:16:23;3.42;;;1.10;;
22415;SDS011;12204;50.600;4.608;2023-04-01T02:21:35;4.00;;;1.40;;
22415;SDS011;12204;50.600;4.608;2023-04-01T02:26:39;3.75;;;1.13;;
22415;SDS011;12204;50.600;4.608;2023-04-01T02:31:43;3.67;;;1.20;;
22415;SDS011;12204;50.600;4.608;2023-04-01T02:36:49;4.13;;;1.20;;
22415;SDS011;12204;50.600;4.608;2023-04-01T02:41:54;3.72;;;1.08;;
22415;SDS011;12204;50.600;4.608;2023-04-01T02:46:58;3.78;;;1.00;;
22415;SDS011;12204;50.600;4.608;2023-04-01T02:52:03;3.28;;;1.10;;
22415;SDS011;12204;50.600;4.608;2023-04-01T02:57:07;2.60;;;0.90;;
22415;SDS011;12204;50.600;4.608;2023-04-01T03:02:10;3.83;;;1.20;;
22415;SDS011;12204;50.600;4.608;2023-04-01T03:07:16;3.17;;;1.08;;
22415;SDS011;12204;50.600;4.608;2023-04-01T03:12:19;3.97;;;1.20;;
22415;SDS011;12204;50.600;4.608;2023-04-01T03:17:25;3.50;;;1.10;;
22415;SDS011;12204;50.600;4.608;2023-04-01T03:22:30;2.88;;;1.00;;
22415;SDS011;12204;50.600;4.608;2023-04-01T03:27:33;3.03;;;1.00;;
22415;SDS011;12204;50.600;4.608;2023-04-01T03:32:37;2.70;;;0.90;;
22415;SDS011;12204;50.600;4.608;2023-04-01T03:37:42;3.42;;;1.10;;
22415;SDS011;12204;50.600;4.608;2023-04-01T03:42:46;2.50;;;0.90;;
22415;SDS011;12204;50.600;4.608;2023-04-01T03:47:50;2.15;;;0.88;;
22415;SDS011;12204;50.600;4.608;2023-04-01T03:52:55;2.95;;;1.05;;
22415;SDS011;12204;50.600;4.608;2023-04-01T03:57:59;3.15;;;1.00;;
22415;SDS011;12204;50.600;4.608;2023-04-01T04:03:03;2.83;;;1.00;;
22415;SDS011;12204;50.600;4.608;2023-04-01T04:08:11;2.80;;;0.90;;
22415;SDS011;12204;50.600;4.608;2023-04-01T04:13:14;2.70;;;0.88;;
22415;SDS011;12204;50.600;4.608;2023-04-01T04:18:24;3.08;;;0.93;;
22415;SDS011;12204;50.600;4.608;2023-04-01T04:23:29;2.25;;;0.88;;
22415;SDS011;12204;50.600;4.608;2023-04-01T04:28:35;3.37;;;1.10;;
22415;SDS011;12204;50.600;4.608;2023-04-01T04:33:38;2.75;;;0.90;;
22415;SDS011;12204;50.600;4.608;2023-04-01T04:38:43;2.33;;;0.80;;
22415;SDS011;12204;50.600;4.608;2023-04-01T04:43:48;2.75;;;0.90;;
22415;SDS011;12204;50.600;4.608;2023-04-01T04:48:54;3.88;;;1.10;;
22415;SDS011;12204;50.600;4.608;2023-04-01T04:53:59;3.63;;;1.00;;
22415;SDS011;12204;50.600;4.608;2023-04-01T04:59:16;2.45;;;0.80;;
22415;SDS011;12204;50.600;4.608;2023-04-01T05:04:26;2.35;;;0.80;;
22415;SDS011;12204;50.600;4.608;2023-04-01T05:09:31;3.10;;;1.00;;
22415;SDS011;12204;50.600;4.608;2023-04-01T05:14:36;3.33;;;1.00;;
22415;SDS011;12204;50.600;4.608;2023-04-01T05:19:43;2.08;;;0.90;;
22415;SDS011;12204;50.600;4.608;2023-04-01T05:24:48;2.00;;;0.70;;
22415;SDS011;12204;50.600;4.608;2023-04-01T05:29:53;2.08;;;0.90;;
22415;SDS011;12204;50.600;4.608;2023-04-01T05:35:11;2.88;;;0.90;;
22415;SDS011;12204;50.600;4.608;2023-04-01T05:40:16;2.25;;;0.80;;
22415;SDS011;12204;50.600;4.608;2023-04-01T05:45:20;1.98;;;0.80;;
22415;SDS011;12204;50.600;4.608;2023-04-01T05:50:49;2.30;;;0.80;;
22415;SDS011;12204;50.600;4.608;2023-04-01T05:55:54;2.92;;;0.88;;
22415;SDS011;12204;50.600;4.608;2023-04-01T06:01:00;2.65;;;0.70;;
22415;SDS011;12204;50.600;4.608;2023-04-01T06:06:16;2.38;;;0.82;;
22415;SDS011;12204;50.600;4.608;2023-04-01T06:11:33;2.92;;;0.90;;
22415;SDS011;12204;50.600;4.608;2023-04-01T06:16:47;2.42;;;0.90;;
22415;SDS011;12204;50.600;4.608;2023-04-01T06:28:34;1.95;;;0.75;;
22415;SDS011;12204;50.600;4.608;2023-04-01T06:34:38;2.35;;;0.90;;
22415;SDS011;12204;50.600;4.608;2023-04-01T06:40:23;1.80;;;0.77;;
22415;SDS011;12204;50.600;4.608;2023-04-01T06:45:53;2.00;;;0.60;;
22415;SDS011;12204;50.600;4.608;2023-04-01T06:51:27;1.63;;;0.70;;
22415;SDS011;12204;50.600;4.608;2023-04-01T07:02:25;3.22;;;0.80;;
22415;SDS011;12204;50.600;4.608;2023-04-01T07:07:38;1.48;;;0.68;;
22415;SDS011;12204;50.600;4.608;2023-04-01T07:12:49;2.17;;;0.70;;
22415;SDS011;12204;50.600;4.608;2023-04-01T07:18:28;1.50;;;0.70;;
22415;SDS011;12204;50.600;4.608;2023-04-01T07:23:39;1.65;;;0.80;;
22415;SDS011;12204;50.600;4.608;2023-04-01T07:29:01;2.38;;;0.73;;
22415;SDS011;12204;50.600;4.608;2023-04-01T07:34:18;1.95;;;0.75;;
22415;SDS011;12204;50.600;4.608;2023-04-01T07:39:30;2.17;;;0.70;;
22415;SDS011;12204;50.600;4.608;2023-04-01T07:45:08;2.10;;;0.80;;
22415;SDS011;12204;50.600;4.608;2023-04-01T07:50:27;2.20;;;0.80;;
22415;SDS011;12204;50.600;4.608;2023-04-01T07:55:34;1.65;;;0.70;;
22415;SDS011;12204;50.600;4.608;2023-04-01T08:00:48;2.10;;;0.70;;
22415;SDS011;12204;50.600;4.608;2023-04-01T08:06:10;1.70;;;0.70;;
22415;SDS011;12204;50.600;4.608;2023-04-01T08:11:26;1.83;;;0.70;;
22415;SDS011;12204;50.600;4.608;2023-04-01T08:17:03;1.98;;;0.68;;
22415;SDS011;12204;50.600;4.608;2023-04-01T08:22:20;2.22;;;0.80;;
22415;SDS011;12204;50.600;4.608;2023-04-01T08:27:34;2.78;;;0.63;;
22415;SDS011;12204;50.600;4.608;2023-04-01T08:32:42;1.35;;;0.60;;
22415;SDS011;12204;50.600;4.608;2023-04-01T08:37:52;1.83;;;0.60;;
22415;SDS011;12204;50.600;4.608;2023-04-01T08:43:03;0.85;;;0.60;;
22415;SDS011;12204;50.600;4.608;2023-04-01T08:48:28;2.00;;;0.70;;
22415;SDS011;12204;50.600;4.608;2023-04-01T08:54:23;3.22;;;0.60;;
22415;SDS011;12204;50.600;4.608;2023-04-01T09:00:03;2.13;;;0.63;;
22415;SDS011;12204;50.600;4.608;2023-04-01T09:11:29;2.00;;;0.80;;
22415;SDS011;12204;50.600;4.608;2023-04-01T09:17:26;1.88;;;0.70;;
22415;SDS011;12204;50.600;4.608;2023-04-01T09:23:38;1.38;;;0.52;;
22415;SDS011;12204;50.600;4.608;2023-04-01T09:47:51;0.95;;;0.50;;
22415;SDS011;12204;50.600;4.608;2023-04-01T09:53:56;0.70;;;0.50;;
22415;SDS011;12204;50.600;4.608;2023-04-01T09:59:57;1.05;;;0.50;;
22415;SDS011;12204;50.600;4.608;2023-04-01T10:12:22;0.57;;;0.50;;
22415;SDS011;12204;50.600;4.608;2023-04-01T10:41:57;1.33;;;0.50;;
22415;SDS011;12204;50.600;4.608;2023-04-01T10:59:56;2.05;;;0.60;;
22415;SDS011;12204;50.600;4.608;2023-04-01T11:35:31;0.70;;;0.40;;
22415;SDS011;12204;50.600;4.608;2023-04-01T11:40:51;0.80;;;0.45;;
22415;SDS011;12204;50.600;4.608;2023-04-01T11:46:39;0.52;;;0.50;;
22415;SDS011;12204;50.600;4.608;2023-04-01T11:52:15;1.00;;;0.50;;
22415;SDS011;12204;50.600;4.608;2023-04-01T11:57:51;1.52;;;0.57;;
22415;SDS011;12204;50.600;4.608;2023-04-01T12:03:54;1.13;;;0.50;;
22415;SDS011;12204;50.600;4.608;2023-04-01T12:09:41;0.77;;;0.50;;
22415;SDS011;12204;50.600;4.608;2023-04-01T12:14:59;0.50;;;0.45;;
22415;SDS011;12204;50.600;4.608;2023-04-01T12:20:26;1.65;;;0.60;;
22415;SDS011;12204;50.600;4.608;2023-04-01T12:25:56;0.75;;;0.50;;
22415;SDS011;12204;50.600;4.608;2023-04-01T12:31:27;1.45;;;0.60;;
22415;SDS011;12204;50.600;4.608;2023-04-01T12:36:50;0.77;;;0.45;;
22415;SDS011;12204;50.600;4.608;2023-04-01T12:42:09;2.22;;;0.77;;
22415;SDS011;12204;50.600;4.608;2023-04-01T12:53:04;0.52;;;0.43;;
22415;SDS011;12204;50.600;4.608;2023-04-01T12:58:42;0.40;;;0.40;;
22415;SDS011;12204;50.600;4.608;2023-04-01T13:09:55;0.80;;;0.40;;
22415;SDS011;12204;50.600;4.608;2023-04-01T13:15:11;0.60;;;0.40;;
22415;SDS011;12204;50.600;4.608;2023-04-01T13:20:29;0.60;;;0.40;;
22415;SDS011;12204;50.600;4.608;2023-04-01T13:25:50;0.73;;;0.43;;
22415;SDS011;12204;50.600;4.608;2023-04-01T13:31:20;1.27;;;0.40;;
22415;SDS011;12204;50.600;4.608;2023-04-01T13:36:44;0.80;;;0.40;;
22415;SDS011;12204;50.600;4.608;2023-04-01T13:42:09;0.60;;;0.38;;
22415;SDS011;12204;50.600;4.608;2023-04-01T13:47:34;0.73;;;0.50;;
22415;SDS011;12204;50.600;4.608;2023-04-01T13:53:36;0.83;;;0.50;;
22415;SDS011;12204;50.600;4.608;2023-04-01T14:00:00;1.17;;;0.50;;
22415;SDS011;12204;50.600;4.608;2023-04-01T14:05:43;0.75;;;0.40;;
22415;SDS011;12204;50.600;4.608;2023-04-01T14:10:59;0.68;;;0.40;;
22415;SDS011;12204;50.600;4.608;2023-04-01T14:16:31;1.05;;;0.50;;
22415;SDS011;12204;50.600;4.608;2023-04-01T14:22:05;0.73;;;0.50;;
22415;SDS011;12204;50.600;4.608;2023-04-01T14:27:22;0.73;;;0.50;;
22415;SDS011;12204;50.600;4.608;2023-04-01T14:32:48;1.27;;;0.50;;
22415;SDS011;12204;50.600;4.608;2023-04-01T14:38:06;0.95;;;0.50;;
22415;SDS011;12204;50.600;4.608;2023-04-01T14:44:03;1.10;;;0.40;;
22415;SDS011;12204;50.600;4.608;2023-04-01T14:49:29;0.85;;;0.43;;
22415;SDS011;12204;50.600;4.608;2023-04-01T14:54:37;0.50;;;0.45;;
22415;SDS011;12204;50.600;4.608;2023-04-01T14:59:47;1.13;;;0.50;;
22415;SDS011;12204;50.600;4.608;2023-04-01T15:04:59;0.77;;;0.45;;
22415;SDS011;12204;50.600;4.608;2023-04-01T15:10:24;1.10;;;0.50;;
22415;SDS011;12204;50.600;4.608;2023-04-01T15:15:49;1.08;;;0.50;;
22415;SDS011;12204;50.600;4.608;2023-04-01T15:32:32;0.60;;;0.40;;
22415;SDS011;12204;50.600;4.608;2023-04-01T15:38:02;0.60;;;0.50;;
22415;SDS011;12204;50.600;4.608;2023-04-01T15:43:21;1.40;;;0.50;;
22415;SDS011;12204;50.600;4.608;2023-04-01T15:48:45;0.82;;;0.40;;
22415;SDS011;12204;50.600;4.608;2023-04-01T15:54:23;0.43;;;0.40;;
22415;SDS011;12204;50.600;4.608;2023-04-01T16:00:11;0.55;;;0.40;;
22415;SDS011;12204;50.600;4.608;2023-04-01T16:05:32;0.55;;;0.40;;
22415;SDS011;12204;50.600;4.608;2023-04-01T16:10:47;1.13;;;0.50;;
22415;SDS011;12204;50.600;4.608;2023-04-01T16:16:15;1.30;;;0.60;;
22415;SDS011;12204;50.600;4.608;2023-04-01T16:21:35;0.65;;;0.40;;
22415;SDS011;12204;50.600;4.608;2023-04-01T16:26:49;0.80;;;0.40;;
22415;SDS011;12204;50.600;4.608;2023-04-01T16:32:12;0.70;;;0.35;;
22415;SDS011;12204;50.600;4.608;2023-04-01T16:37:30;1.00;;;0.50;;
22415;SDS011;12204;50.600;4.608;2023-04-01T16:42:46;0.70;;;0.40;;
22415;SDS011;12204;50.600;4.608;2023-04-01T16:47:54;0.82;;;0.40;;
22415;SDS011;12204;50.600;4.608;2023-04-01T16:53:08;1.15;;;0.40;;
22415;SDS011;12204;50.600;4.608;2023-04-01T16:58:33;1.20;;;0.40;;
22415;SDS011;12204;50.600;4.608;2023-04-01T17:03:46;0.38;;;0.32;;
22415;SDS011;12204;50.600;4.608;2023-04-01T17:14:39;0.88;;;0.40;;
22415;SDS011;12204;50.600;4.608;2023-04-01T17:19:56;1.20;;;0.50;;
22415;SDS011;12204;50.600;4.608;2023-04-01T17:25:26;1.10;;;0.50;;
22415;SDS011;12204;50.600;4.608;2023-04-01T17:30:50;0.95;;;0.40;;
22415;SDS011;12204;50.600;4.608;2023-04-01T17:36:11;1.08;;;0.40;;
22415;SDS011;12204;50.600;4.608;2023-04-01T17:41:32;0.95;;;0.47;;
22415;SDS011;12204;50.600;4.608;2023-04-01T17:46:56;1.10;;;0.40;;
22415;SDS011;12204;50.600;4.608;2023-04-01T17:52:29;0.40;;;0.32;;
22415;SDS011;12204;50.600;4.608;2023-04-01T17:57:42;0.45;;;0.40;;
22415;SDS011;12204;50.600;4.608;2023-04-01T18:02:56;1.52;;;0.45;;
22415;SDS011;12204;50.600;4.608;2023-04-01T18:08:23;0.80;;;0.50;;
22415;SDS011;12204;50.600;4.608;2023-04-01T18:19:46;0.85;;;0.40;;
22415;SDS011;12204;50.600;4.608;2023-04-01T18:25:14;0.80;;;0.40;;
22415;SDS011;12204;50.600;4.608;2023-04-01T18:30:27;0.80;;;0.38;;
22415;SDS011;12204;50.600;4.608;2023-04-01T18:35:45;0.95;;;0.40;;
22415;SDS011;12204;50.600;4.608;2023-04-01T18:41:07;1.67;;;0.50;;
22415;SDS011;12204;50.600;4.608;2023-04-01T18:46:16;0.77;;;0.40;;
22415;SDS011;12204;50.600;4.608;2023-04-01T18:51:26;1.25;;;0.50;;
22415;SDS011;12204;50.600;4.608;2023-04-01T18:56:48;0.90;;;0.40;;
22415;SDS011;12204;50.600;4.608;2023-04-01T19:01:55;1.75;;;0.50;;
22415;SDS011;12204;50.600;4.608;2023-04-01T19:12:48;0.82;;;0.40;;
22415;SDS011;12204;50.600;4.608;2023-04-01T19:18:35;0.63;;;0.40;;
22415;SDS011;12204;50.600;4.608;2023-04-01T19:30:21;0.88;;;0.40;;
22415;SDS011;12204;50.600;4.608;2023-04-01T19:35:40;0.77;;;0.40;;
22415;SDS011;12204;50.600;4.608;2023-04-01T19:40:53;2.20;;;0.57;;
22415;SDS011;12204;50.600;4.608;2023-04-01T19:46:00;1.00;;;0.47;;
22415;SDS011;12204;50.600;4.608;2023-04-01T19:51:15;1.25;;;0.40;;
22415;SDS011;12204;50.600;4.608;2023-04-01T19:56:33;1.42;;;0.50;;
22415;SDS011;12204;50.600;4.608;2023-04-01T20:01:46;1.05;;;0.40;;
22415;SDS011;12204;50.600;4.608;2023-04-01T20:06:56;1.10;;;0.40;;
22415;SDS011;12204;50.600;4.608;2023-04-01T20:12:09;1.08;;;0.40;;
22415;SDS011;12204;50.600;4.608;2023-04-01T20:17:32;1.52;;;0.50;;
22415;SDS011;12204;50.600;4.608;2023-04-01T20:28:44;0.75;;;0.50;;
22415;SDS011;12204;50.600;4.608;2023-04-01T20:40:35;1.40;;;0.50;;
22415;SDS011;12204;50.600;4.608;2023-04-01T20:45:44;2.28;;;0.60;;
22415;SDS011;12204;50.600;4.608;2023-04-01T20:51:01;2.08;;;0.63;;
22415;SDS011;12204;50.600;4.608;2023-04-01T20:56:17;1.00;;;0.50;;
22415;SDS011;12204;50.600;4.608;2023-04-01T21:01:38;2.15;;;0.40;;
22415;SDS011;12204;50.600;4.608;2023-04-01T21:06:57;1.48;;;0.50;;
22415;SDS011;12204;50.600;4.608;2023-04-01T21:12:26;2.03;;;0.50;;
22415;SDS011;12204;50.600;4.608;2023-04-01T21:17:44;2.83;;;0.60;;
22415;SDS011;12204;50.600;4.608;2023-04-01T21:23:06;1.85;;;0.70;;
22415;SDS011;12204;50.600;4.608;2023-04-01T21:28:33;1.83;;;0.60;;
22415;SDS011;12204;50.600;4.608;2023-04-01T21:39:47;1.27;;;0.50;;
22415;SDS011;12204;50.600;4.608;2023-04-01T21:45:16;2.50;;;0.70;;
22415;SDS011;12204;50.600;4.608;2023-04-01T21:51:00;2.55;;;0.80;;
22415;SDS011;12204;50.600;4.608;2023-04-01T21:57:21;2.15;;;0.80;;
22415;SDS011;12204;50.600;4.608;2023-04-01T22:09:13;3.53;;;0.85;;
22415;SDS011;12204;50.600;4.608;2023-04-01T22:14:27;1.73;;;0.80;;
22415;SDS011;12204;50.600;4.608;2023-04-01T22:19:42;1.88;;;0.80;;
22415;SDS011;12204;50.600;4.608;2023-04-01T22:24:59;2.22;;;0.90;;
22415;SDS011;12204;50.600;4.608;2023-04-01T22:30:12;4.38;;;1.00;;
22415;SDS011;12204;50.600;4.608;2023-04-01T22:35:27;2.45;;;0.90;;
22415;SDS011;12204;50.600;4.608;2023-04-01T22:40:44;2.03;;;0.70;;
22415;SDS011;12204;50.600;4.608;2023-04-01T22:46:01;2.85;;;0.90;;
22415;SDS011;12204;50.600;4.608;2023-04-01T22:51:27;2.05;;;0.80;;
22415;SDS011;12204;50.600;4.608;2023-04-01T22:56:49;1.70;;;0.80;;
22415;SDS011;12204;50.600;4.608;2023-04-01T23:01:58;2.85;;;1.00;;
22415;SDS011;12204;50.600;4.608;2023-04-01T23:07:17;2.22;;;1.00;;
22415;SDS011;12204;50.600;4.608;2023-04-01T23:12:39;2.17;;;0.90;;
22415;SDS011;12204;50.600;4.608;2023-04-01T23:17:47;2.08;;;0.80;;
22415;SDS011;12204;50.600;4.608;2023-04-01T23:23:17;2.30;;;0.85;;
22415;SDS011;12204;50.600;4.608;2023-04-01T23:28:46;2.30;;;0.77;;
22415;SDS011;12204;50.600;4.608;2023-04-01T23:33:53;2.00;;;1.00;;
22415;SDS011;12204;50.600;4.608;2023-04-01T23:38:58;2.40;;;1.10;;
22415;SDS011;12204;50.600;4.608;2023-04-01T23:44:10;2.70;;;1.00;;
22415;SDS011;12204;50.600;4.608;2023-04-01T23:49:17;3.13;;;1.10;;
22415;SDS011;12204;50.600;4.608;2023-04-01T23:54:25;2.30;;;1.00;;
22415;SDS011;12204;50.600;4.608;2023-04-01T23:59:37;3.03;;;1.10;;
